Terminal Aerodrome Forecast
Issued by NWS Lake Charles, LA

Home | Current Version | Previous Version | Text Only | Print | Product List | Glossary On
Versions: 1 2 3 4 5 6 7 8 9 10 11 12 13 14 15 16
000
FTUS44 KLCH 290200 RRA
TAFARA
TAF
KARA 290220Z 2902/2924 14008KT P6SM SCT250
     FM290800 VRB03KT 3SM BR FEW250
      TEMPO 2909/2913 3/4SM BR SCT005
     FM291500 22008KT P6SM SCT250=

USA.gov is the U.S. government's official web portal to all federal, state and local government web resources and services.